Etusivu
METAR-TAF:

METAR-TAF

Lentoasemat :

Kiel, Saksa

Leveyspiiri: 54-23N, Pituuspiiri: 010-10E, korkeus merenpinnasta: 31 m

Tämänhetkinen sää

Tämä raportti tehtiin 44 minuuttia sitten, kello 11.50 UTC
Tuuli 17 kn lännestä
Lämpötila 7°C
Kosteus 87%
Ilmanpaine 1016 hPa
Näkyvyys 10 km tai enemmän
Hajonneita pilviä 2100 ft:n korkeudessa
heikkoa sadetta, tihkusadetta

METAR: EDHK 011150Z 28017KT 9999 -RADZ BKN021 07/05 Q1016

Aika: 14:34 (12:34 UTC)

Sääennuste

Tämä raportti tehtiin 1 tunti ja 34 minuuttia sitten, kello 11.00 UTC
Ennuste voimassa 01. päivästä klo 12 UTC - 01. päivään klo 18 UTC
Tuuli 11 kn lännestä
Näkyvyys 10 km tai enemmän
Hajonneita pilviä 3500 ft:n korkeudessa
Ajoittain
01. päivästä klo 12 UTC - 01. päivään klo 18 UTC
Tuuli 15 kn lännestä puuskistuen 25 kn:hen

TAF: EDHK 011100Z 0112/0118 26011KT 9999 BKN035 TEMPO 0112/0118 27015G25KT

Säähavainnot ja -ennusteet yli 4000 lentoasemalta (METAR- ja TAF-raportit).

Käytössä olevat sääasemat on merkitty karttaan keltaisilla ja punaisilla pisteillä.

Aseta hiiri pisteen päälle nähdäksesi sääaseman nimen.

Klikkaa sitten nähdäksesi säähavainnot ja -ennusteet.

Kartan vaihtaminen: klikkaa mustalla rastilla varustettuja vihreitä pisteitä, niin voit zoomata sisään; viivalla varustettua vihreää pistettä, niin voit zoomata ulos tai vihreitä nuolia, niin pääset viereisille kartoille.


METAR-TAF: